createdAt,value
2017-12-31T00:00:52.400Z,79.8
2017-12-31T00:01:52.413Z,79.99
2017-12-31T00:02:52.154Z,79.8
2017-12-31T00:03:52.445Z,79.7
2017-12-31T00:04:52.181Z,79.7
2017-12-31T00:05:52.200Z,79.7
2017-12-31T00:06:52.209Z,79.7
2017-12-31T00:07:52.501Z,79.7
2017-12-31T00:08:52.566Z,79.6
2017-12-31T00:09:52.253Z,79.41
2017-12-31T00:10:52.268Z,79.6
2017-12-31T00:11:52.285Z,79.13
2017-12-31T00:12:52.295Z,79.13
2017-12-31T00:13:52.587Z,79.8
2017-12-31T00:14:52.598Z,78.94
2017-12-31T00:15:52.617Z,79.22
2017-12-31T00:16:52.355Z,79.32
2017-12-31T00:17:52.664Z,79.32
2017-12-31T00:18:52.657Z,79.51
2017-12-31T00:19:52.675Z,79.13
2017-12-31T00:20:52.688Z,78.85
2017-12-31T00:21:52.424Z,79.22
2017-12-31T00:22:52.443Z,79.22
2017-12-31T00:23:52.726Z,79.22
2017-12-31T00:24:52.476Z,79.03
2017-12-31T00:25:52.481Z,79.32
2017-12-31T00:26:52.498Z,78.75
2017-12-31T00:27:52.788Z,78.85
2017-12-31T00:28:52.802Z,78.85
2017-12-31T00:29:52.817Z,79.13
2017-12-31T00:30:52.831Z,79.13
2017-12-31T00:31:52.572Z,79.03
2017-12-31T00:32:52.859Z,79.03
2017-12-31T00:33:52.605Z,79.03
2017-12-31T00:34:52.622Z,78.85
2017-12-31T00:35:52.632Z,78.46
2017-12-31T00:36:52.642Z,78.94
2017-12-31T00:37:52.657Z,78.94
2017-12-31T00:38:52.945Z,78.56
2017-12-31T00:39:52.959Z,78.65
2017-12-31T00:40:52.700Z,79.03
2017-12-31T00:41:52.994Z,78.75
2017-12-31T00:42:53.006Z,78.46
2017-12-31T00:43:52.747Z,78.65
2017-12-31T00:44:52.759Z,78.37
2017-12-31T00:45:53.051Z,78.75
2017-12-31T00:46:53.095Z,78.56
2017-12-31T00:47:53.079Z,78.65
2017-12-31T00:48:53.101Z,78.65
2017-12-31T00:49:52.830Z,79.13
2017-12-31T00:50:52.845Z,78.85
2017-12-31T00:51:52.858Z,78.27
2017-12-31T00:52:53.147Z,78.75
2017-12-31T00:53:52.888Z,79.03
2017-12-31T00:54:52.936Z,79.13
2017-12-31T00:55:53.191Z,78.17
2017-12-31T00:56:53.206Z,78.5
2017-12-31T00:57:52.949Z,78.65
2017-12-31T00:58:52.960Z,78.46
2017-12-31T00:59:53.248Z,78.65
2017-12-31T01:00:52.990Z,78.46
2017-12-31T01:01:53.006Z,78.56
2017-12-31T01:02:53.019Z,78.59
2017-12-31T01:03:53.034Z,78.78
2017-12-31T01:04:53.055Z,78.56
2017-12-31T01:05:53.061Z,78.56
2017-12-31T01:06:53.351Z,78.56
2017-12-31T01:07:53.413Z,78.59
2017-12-31T01:08:53.379Z,78.75
2017-12-31T01:09:53.122Z,78.65
2017-12-31T01:10:53.414Z,78.75
2017-12-31T01:11:53.152Z,78.78
2017-12-31T01:12:53.439Z,78.56
2017-12-31T01:13:53.455Z,78.75
2017-12-31T01:14:53.481Z,78.22
2017-12-31T01:15:53.209Z,78.22
2017-12-31T01:16:53.496Z,78.5
2017-12-31T01:17:53.240Z,78.46
2017-12-31T01:18:53.528Z,78.31
2017-12-31T01:19:53.541Z,78.59
2017-12-31T01:20:53.554Z,78.46
2017-12-31T01:21:53.569Z,78.59
2017-12-31T01:22:53.312Z,78.08
2017-12-31T01:23:53.599Z,78.31
2017-12-31T01:24:53.613Z,78.65
2017-12-31T01:25:53.631Z,78.46
2017-12-31T01:26:53.374Z,78.37
2017-12-31T01:27:53.381Z,78.59
2017-12-31T01:28:53.672Z,77.98
2017-12-31T01:29:53.688Z,78.46
2017-12-31T01:30:53.425Z,78.22
2017-12-31T01:31:53.718Z,77.93
2017-12-31T01:32:53.754Z,78.17
2017-12-31T01:33:53.471Z,78.46
2017-12-31T01:34:53.485Z,78.22
2017-12-31T01:35:53.498Z,78.22
2017-12-31T01:36:53.791Z,78.31
2017-12-31T01:37:53.529Z,78.08
2017-12-31T01:38:53.818Z,78.41
2017-12-31T01:39:53.641Z,78.37
2017-12-31T01:40:53.848Z,78.41
2017-12-31T01:41:53.869Z,78.17
2017-12-31T01:42:53.875Z,78.37
2017-12-31T01:43:53.899Z,78.17
2017-12-31T01:44:53.905Z,78.17
2017-12-31T01:45:53.643Z,78.08
2017-12-31T01:46:53.937Z,78.08
2017-12-31T01:47:53.950Z,77.8
2017-12-31T01:48:53.962Z,77.89
2017-12-31T01:49:53.704Z,77.98
2017-12-31T01:50:53.995Z,77.89
2017-12-31T01:51:54.018Z,78.08
2017-12-31T01:52:53.748Z,77.98
2017-12-31T01:53:54.037Z,78.17
2017-12-31T01:54:53.830Z,78.17
2017-12-31T01:55:54.070Z,78.27
2017-12-31T01:56:53.808Z,77.42
2017-12-31T01:57:53.822Z,77.98
2017-12-31T01:58:53.840Z,77.17
2017-12-31T01:59:53.853Z,77.98
2017-12-31T02:00:53.866Z,77.7
2017-12-31T02:01:54.154Z,77.32
2017-12-31T02:02:54.169Z,77.26
2017-12-31T02:03:53.909Z,77.03
2017-12-31T02:04:54.250Z,76.94
2017-12-31T02:05:54.220Z,76.98
2017-12-31T02:06:54.225Z,77.22
2017-12-31T02:07:54.241Z,76.59
2017-12-31T02:08:54.256Z,77.45
2017-12-31T02:09:54.000Z,77.42
2017-12-31T02:10:54.013Z,77.22
2017-12-31T02:11:54.302Z,77.32
2017-12-31T02:12:54.316Z,77.17
2017-12-31T02:13:54.329Z,77.13
2017-12-31T02:14:54.396Z,77.03
2017-12-31T02:15:54.085Z,76.94
2017-12-31T02:16:54.374Z,76.84
2017-12-31T02:17:54.390Z,76.98
2017-12-31T02:18:54.130Z,76.84
2017-12-31T02:19:54.468Z,76.94
2017-12-31T02:20:54.161Z,76.75
2017-12-31T02:21:54.173Z,77.07
2017-12-31T02:22:54.190Z,77.13
2017-12-31T02:23:54.478Z,76.56
2017-12-31T02:24:54.217Z,76.56
2017-12-31T02:25:54.509Z,76.84
2017-12-31T02:26:54.246Z,76.88
2017-12-31T02:27:54.265Z,76.75
2017-12-31T02:28:54.551Z,76.75
2017-12-31T02:29:54.565Z,76.75
2017-12-31T02:30:54.589Z,76.46
2017-12-31T02:31:54.322Z,76.56
2017-12-31T02:32:54.609Z,76.75
2017-12-31T02:33:54.351Z,76.84
2017-12-31T02:34:54.642Z,76.79
2017-12-31T02:35:54.379Z,76.84
2017-12-31T02:36:54.668Z,77.13
2017-12-31T02:37:54.692Z,77.13
2017-12-31T02:38:54.423Z,77.13
2017-12-31T02:39:54.439Z,76.84
2017-12-31T02:40:54.454Z,76.94
2017-12-31T02:41:54.739Z,76.75
2017-12-31T02:42:54.790Z,76.84
2017-12-31T02:43:54.498Z,76.65
2017-12-31T02:44:54.786Z,76.88
2017-12-31T02:45:54.533Z,76.84
2017-12-31T02:46:54.541Z,76.84
2017-12-31T02:47:54.828Z,76.79
2017-12-31T02:48:54.846Z,76.84
2017-12-31T02:49:54.585Z,76.94
2017-12-31T02:50:54.599Z,76.79
2017-12-31T02:51:54.888Z,76.75
2017-12-31T02:52:54.902Z,77.42
2017-12-31T02:53:54.644Z,76.65
2017-12-31T02:54:54.936Z,77.26
2017-12-31T02:55:54.673Z,77.51
2017-12-31T02:56:54.687Z,77.22
2017-12-31T02:57:54.703Z,77.26
2017-12-31T02:58:54.716Z,77.22
2017-12-31T02:59:54.733Z,77.17
2017-12-31T03:00:54.747Z,77.22
2017-12-31T03:01:55.037Z,77.17
2017-12-31T03:02:54.775Z,77.26
2017-12-31T03:03:54.790Z,76.88
2017-12-31T03:04:54.807Z,77.26
2017-12-31T03:05:54.821Z,77.07
2017-12-31T03:06:55.107Z,77.07
2017-12-31T03:07:55.122Z,77.03
2017-12-31T03:08:54.863Z,77.89
2017-12-31T03:09:54.879Z,77.7
2017-12-31T03:10:54.895Z,77.13
2017-12-31T03:11:55.184Z,77.7
2017-12-31T03:12:54.921Z,77.74
2017-12-31T03:13:55.221Z,77.61
2017-12-31T03:14:54.951Z,77.32
2017-12-31T03:15:55.241Z,77.51
2017-12-31T03:16:55.254Z,77.32
2017-12-31T03:17:55.000Z,78.03
2017-12-31T03:18:55.288Z,77.26
2017-12-31T03:19:55.025Z,77.51
2017-12-31T03:20:55.041Z,77.74
2017-12-31T03:21:55.330Z,78.22
2017-12-31T03:22:55.069Z,78.03
2017-12-31T03:23:55.098Z,77.98
2017-12-31T03:24:55.392Z,77.7
2017-12-31T03:25:55.163Z,77.89
2017-12-31T03:26:55.403Z,78.31
2017-12-31T03:27:55.143Z,78.37
2017-12-31T03:28:55.157Z,78.22
2017-12-31T03:29:55.453Z,78.37
2017-12-31T03:30:55.464Z,78.46
2017-12-31T03:31:55.206Z,78.59
2017-12-31T03:32:55.493Z,78.46
2017-12-31T03:33:55.234Z,78.5
2017-12-31T03:34:55.525Z,78.37
2017-12-31T03:35:55.536Z,78.37
2017-12-31T03:36:55.276Z,78.08
2017-12-31T03:37:55.569Z,78.69
2017-12-31T03:38:55.304Z,78.56
2017-12-31T03:39:55.592Z,79.46
2017-12-31T03:40:55.612Z,79.03
2017-12-31T03:41:55.350Z,79.41
2017-12-31T03:42:55.364Z,79.22
2017-12-31T03:43:55.379Z,79.22
2017-12-31T03:44:55.395Z,78.94
2017-12-31T03:45:55.690Z,79.8
2017-12-31T03:46:55.428Z,79.22
2017-12-31T03:47:55.712Z,79.6
2017-12-31T03:48:55.452Z,79.89
2017-12-31T03:49:55.468Z,79.7
2017-12-31T03:50:55.757Z,79.6
2017-12-31T03:51:55.498Z,79.8
2017-12-31T03:52:55.788Z,79.99
2017-12-31T03:53:55.528Z,79.8
2017-12-31T03:54:55.542Z,79.6
2017-12-31T03:55:55.558Z,79.6
2017-12-31T03:56:55.843Z,79.7
2017-12-31T03:57:55.862Z,79.8
2017-12-31T03:58:55.599Z,80.08
2017-12-31T03:59:55.619Z,80.27
2017-12-31T04:00:55.683Z,80.27
2017-12-31T04:01:55.641Z,80.18
2017-12-31T04:02:55.661Z,79.89
2017-12-31T04:03:55.951Z,80.36
2017-12-31T04:04:55.687Z,80.18
2017-12-31T04:05:55.988Z,80.36
2017-12-31T04:06:55.725Z,80.18
2017-12-31T04:07:56.005Z,79.99
2017-12-31T04:08:56.023Z,80.18
2017-12-31T04:09:55.765Z,79.89
2017-12-31T04:10:55.775Z,79.7
2017-12-31T04:11:56.069Z,80.18
2017-12-31T04:12:56.082Z,80.27
2017-12-31T04:13:55.820Z,80.08
2017-12-31T04:14:56.110Z,79.99
2017-12-31T04:15:56.134Z,79.6
2017-12-31T04:16:56.138Z,79.89
2017-12-31T04:17:56.159Z,79.99
2017-12-31T04:18:55.894Z,79.89
2017-12-31T04:19:56.183Z,79.41
2017-12-31T04:20:56.198Z,79.7
2017-12-31T04:21:55.937Z,79.7
2017-12-31T04:22:55.949Z,79.8
2017-12-31T04:23:55.966Z,79.99
2017-12-31T04:24:56.258Z,79.8
2017-12-31T04:25:56.277Z,79.89
2017-12-31T04:26:56.284Z,79.7
2017-12-31T04:27:56.298Z,79.89
2017-12-31T04:28:56.039Z,79.7
2017-12-31T04:29:56.333Z,79.6
2017-12-31T04:30:56.068Z,79.51
2017-12-31T04:31:56.368Z,79.51
2017-12-31T04:32:56.099Z,79.51
2017-12-31T04:33:56.389Z,79.51
2017-12-31T04:34:56.129Z,79.8
2017-12-31T04:35:56.415Z,79.7
2017-12-31T04:36:56.157Z,79.7
2017-12-31T04:37:56.173Z,79.41
2017-12-31T04:38:56.462Z,79.6
2017-12-31T04:39:56.200Z,79.89
2017-12-31T04:40:56.220Z,79.6
2017-12-31T04:41:56.505Z,79.41
2017-12-31T04:42:56.523Z,79.6
2017-12-31T04:43:56.532Z,79.22
2017-12-31T04:44:56.553Z,79.13
2017-12-31T04:45:56.560Z,79.22
2017-12-31T04:46:56.307Z,79.8
2017-12-31T04:47:56.597Z,79.22
2017-12-31T04:48:56.604Z,79.03
2017-12-31T04:49:56.344Z,79.6
2017-12-31T04:50:56.637Z,78.94
2017-12-31T04:51:56.698Z,78.94
2017-12-31T04:52:56.672Z,79.22
2017-12-31T04:53:56.682Z,79.13
2017-12-31T04:54:56.699Z,79.13
2017-12-31T04:55:56.707Z,79.22
2017-12-31T04:56:56.498Z,79.22
2017-12-31T04:57:56.734Z,79.03
2017-12-31T04:58:56.752Z,79.03
2017-12-31T04:59:56.767Z,78.85
2017-12-31T05:00:56.781Z,78.75
2017-12-31T05:01:56.795Z,78.94
2017-12-31T05:02:56.810Z,79.22
2017-12-31T05:03:56.550Z,79.22
2017-12-31T05:04:56.839Z,78.94
2017-12-31T05:05:56.586Z,79.13
2017-12-31T05:06:56.920Z,79.41
2017-12-31T05:07:56.608Z,79.32
2017-12-31T05:08:56.901Z,79.32
2017-12-31T05:09:56.637Z,79.32
2017-12-31T05:10:56.930Z,79.03
2017-12-31T05:11:56.992Z,79.03
2017-12-31T05:12:56.706Z,79.22
2017-12-31T05:13:56.971Z,79.6
2017-12-31T05:14:56.712Z,79.22
2017-12-31T05:15:57.001Z,79.22
2017-12-31T05:16:57.078Z,79.51
2017-12-31T05:17:57.029Z,79.13
2017-12-31T05:18:57.048Z,79.51
2017-12-31T05:19:56.784Z,79.13
2017-12-31T05:20:56.797Z,78.94
2017-12-31T05:21:57.090Z,79.51
2017-12-31T05:22:57.119Z,79.22
2017-12-31T05:23:57.122Z,79.13
2017-12-31T05:24:57.129Z,79.13
2017-12-31T05:25:56.879Z,78.94
2017-12-31T05:26:57.158Z,79.32
2017-12-31T05:27:57.178Z,79.22
2017-12-31T05:28:57.280Z,79.13
2017-12-31T05:29:56.931Z,78.94
2017-12-31T05:30:57.222Z,78.94
2017-12-31T05:31:57.233Z,79.22
2017-12-31T05:32:57.246Z,78.85
2017-12-31T05:33:57.260Z,79.03
2017-12-31T05:34:57.004Z,79.03
2017-12-31T05:35:57.293Z,79.13
2017-12-31T05:36:57.031Z,79.13
2017-12-31T05:37:57.322Z,78.94
2017-12-31T05:38:57.336Z,78.94
2017-12-31T05:39:57.348Z,79.03
2017-12-31T05:40:57.087Z,79.03
2017-12-31T05:41:57.376Z,78.94
2017-12-31T05:42:57.393Z,79.41
2017-12-31T05:43:57.409Z,79.13
2017-12-31T05:44:57.423Z,78.94
2017-12-31T05:45:57.162Z,78.56
2017-12-31T05:46:57.181Z,78.46
2017-12-31T05:47:57.464Z,78.85
2017-12-31T05:48:57.204Z,78.65
2017-12-31T05:49:57.251Z,78.65
2017-12-31T05:50:57.505Z,78.75
2017-12-31T05:51:57.599Z,78.75
2017-12-31T05:52:57.581Z,78.75
2017-12-31T05:53:57.550Z,78.56
2017-12-31T05:54:57.294Z,78.56
2017-12-31T05:55:57.588Z,78.56
2017-12-31T05:56:57.599Z,78.56
2017-12-31T05:57:57.334Z,78.56
2017-12-31T05:58:57.349Z,78.56
2017-12-31T05:59:57.364Z,78.56
2017-12-31T06:00:57.654Z,78.75
2017-12-31T06:01:57.668Z,79.32
2017-12-31T06:02:57.412Z,78.65
2017-12-31T06:03:57.699Z,78.75
2017-12-31T06:04:57.709Z,78.65
2017-12-31T06:05:57.726Z,79.03
2017-12-31T06:06:57.740Z,78.56
2017-12-31T06:07:57.754Z,78.65
2017-12-31T06:08:57.495Z,79.03
2017-12-31T06:09:57.508Z,79.03
2017-12-31T06:10:57.522Z,78.75
2017-12-31T06:11:57.537Z,78.65
2017-12-31T06:12:57.551Z,78.65
2017-12-31T06:13:57.565Z,78.56
2017-12-31T06:14:57.854Z,79.03
2017-12-31T06:15:57.866Z,78.94
2017-12-31T06:16:57.883Z,78.65
2017-12-31T06:17:57.623Z,78.56
2017-12-31T06:18:57.639Z,78.56
2017-12-31T06:19:57.926Z,78.46
2017-12-31T06:20:57.940Z,78.75
2017-12-31T06:21:57.954Z,78.75
2017-12-31T06:22:57.697Z,78.85
2017-12-31T06:23:57.709Z,79.13
2017-12-31T06:24:57.999Z,78.46
2017-12-31T06:25:58.014Z,79.22
2017-12-31T06:26:58.030Z,78.75
2017-12-31T06:27:58.093Z,78.75
2017-12-31T06:28:57.784Z,79.13
2017-12-31T06:29:58.073Z,79.41
2017-12-31T06:30:57.813Z,78.56
2017-12-31T06:31:58.111Z,78.75
2017-12-31T06:32:57.838Z,78.75
2017-12-31T06:33:58.128Z,78.94
2017-12-31T06:34:58.200Z,78.56
2017-12-31T06:35:57.895Z,78.85
2017-12-31T06:36:57.903Z,78.94
2017-12-31T06:37:57.912Z,79.03
2017-12-31T06:38:57.927Z,78.94
2017-12-31T06:39:57.942Z,79.03
2017-12-31T06:40:58.234Z,79.13
2017-12-31T06:41:57.970Z,79.13
2017-12-31T06:42:58.040Z,79.13
2017-12-31T06:43:58.278Z,79.13
2017-12-31T06:44:58.287Z,78.37
2017-12-31T06:45:58.308Z,79.22
2017-12-31T06:46:58.317Z,78.94
2017-12-31T06:47:58.058Z,78.75
2017-12-31T06:48:58.369Z,78.75
2017-12-31T06:49:58.360Z,79.13
2017-12-31T06:50:58.379Z,79.13
2017-12-31T06:51:58.114Z,79.13
2017-12-31T06:52:58.139Z,79.22
2017-12-31T06:53:58.148Z,79.13
2017-12-31T06:54:58.158Z,79.13
2017-12-31T06:55:58.448Z,79.22
2017-12-31T06:56:58.462Z,78.94
2017-12-31T06:57:58.479Z,79.13
2017-12-31T06:58:58.216Z,78.85
2017-12-31T06:59:58.507Z,78.94
2017-12-31T07:00:58.245Z,79.13
2017-12-31T07:01:58.541Z,79.13
2017-12-31T07:02:58.274Z,79.32
2017-12-31T07:03:58.290Z,78.94
2017-12-31T07:04:58.578Z,78.94
2017-12-31T07:05:58.319Z,79.03
2017-12-31T07:06:58.330Z,78.94
2017-12-31T07:07:58.348Z,78.94
2017-12-31T07:08:58.634Z,78.94
2017-12-31T07:09:58.649Z,79.03
2017-12-31T07:10:58.663Z,79.22
2017-12-31T07:11:58.686Z,79.41
2017-12-31T07:12:58.691Z,79.41
2017-12-31T07:13:58.706Z,79.13
2017-12-31T07:14:58.726Z,79.89
2017-12-31T07:15:58.737Z,79.7
2017-12-31T07:16:58.750Z,79.7
2017-12-31T07:17:58.489Z,79.8
2017-12-31T07:18:58.782Z,79.51
2017-12-31T07:19:58.798Z,79.8
2017-12-31T07:20:58.808Z,79.7
2017-12-31T07:21:58.831Z,79.8
2017-12-31T07:22:58.561Z,79.41
2017-12-31T07:23:58.657Z,79.8
2017-12-31T07:24:58.611Z,79.7
2017-12-31T07:25:58.879Z,79.6
2017-12-31T07:26:58.619Z,79.8
2017-12-31T07:27:58.916Z,79.51
2017-12-31T07:28:58.649Z,79.41
2017-12-31T07:29:58.944Z,79.6
2017-12-31T07:30:58.679Z,79.6
2017-12-31T07:31:58.693Z,79.6
2017-12-31T07:32:58.980Z,79.22
2017-12-31T07:33:58.994Z,79.7
2017-12-31T07:34:58.734Z,79.51
2017-12-31T07:35:58.779Z,79.41
2017-12-31T07:36:58.762Z,79.8
2017-12-31T07:37:58.779Z,79.51
2017-12-31T07:38:59.118Z,79.6
2017-12-31T07:39:58.805Z,79.8
2017-12-31T07:40:58.822Z,79.6
2017-12-31T07:41:59.111Z,79.41
2017-12-31T07:42:58.850Z,79.89
2017-12-31T07:43:59.191Z,79.8
2017-12-31T07:44:59.153Z,79.8
2017-12-31T07:45:58.894Z,79.6
2017-12-31T07:46:59.183Z,79.8
2017-12-31T07:47:59.200Z,79.89
2017-12-31T07:48:58.988Z,79.99
2017-12-31T07:49:59.225Z,79.8
2017-12-31T07:50:59.239Z,79.7
2017-12-31T07:51:58.979Z,79.6
2017-12-31T07:52:58.993Z,79.7
2017-12-31T07:53:59.331Z,79.51
2017-12-31T07:54:59.298Z,79.89
2017-12-31T07:55:59.311Z,79.8
2017-12-31T07:56:59.328Z,79.7
2017-12-31T07:57:59.067Z,79.8
2017-12-31T07:58:59.129Z,79.6
2017-12-31T07:59:59.096Z,79.32
2017-12-31T08:00:59.119Z,79.41
2017-12-31T08:01:59.397Z,79.41
2017-12-31T08:02:59.142Z,79.8
2017-12-31T08:03:59.151Z,79.7
2017-12-31T08:04:59.481Z,79.41
2017-12-31T08:05:59.183Z,79.22
2017-12-31T08:06:59.197Z,79.41
2017-12-31T08:07:59.211Z,78.85
2017-12-31T08:08:59.227Z,79.6
2017-12-31T08:09:59.242Z,79.22
2017-12-31T08:10:59.532Z,79.41
2017-12-31T08:11:59.546Z,79.8
2017-12-31T08:12:59.562Z,79.8
2017-12-31T08:13:59.572Z,79.22
2017-12-31T08:14:59.314Z,79.7
2017-12-31T08:15:59.601Z,79.89
2017-12-31T08:16:59.620Z,79.89
2017-12-31T08:17:59.629Z,79.22
2017-12-31T08:18:59.648Z,79.13
2017-12-31T08:19:59.661Z,79.41
2017-12-31T08:20:59.680Z,79.41
2017-12-31T08:21:59.420Z,79.41
2017-12-31T08:22:59.702Z,79.32
2017-12-31T08:23:59.722Z,79.51
2017-12-31T08:24:59.784Z,79.7
2017-12-31T08:25:59.816Z,79.51
2017-12-31T08:26:59.486Z,79.51
2017-12-31T08:27:59.774Z,79.51
2017-12-31T08:28:59.515Z,79.41
2017-12-31T08:29:59.809Z,79.51
2017-12-31T08:30:59.823Z,79.51
2017-12-31T08:31:59.831Z,79.6
2017-12-31T08:32:59.848Z,79.7
2017-12-31T08:33:59.592Z,79.51
2017-12-31T08:34:59.926Z,79.6
2017-12-31T08:35:59.622Z,79.8
2017-12-31T08:36:59.632Z,79.8
2017-12-31T08:37:59.923Z,79.7
2017-12-31T08:38:59.934Z,79.32
2017-12-31T08:39:59.695Z,79.51
2017-12-31T08:40:59.963Z,79.7
2017-12-31T08:41:59.707Z,79.7
2017-12-31T08:42:59.990Z,79.8
2017-12-31T08:44:00.007Z,79.7
2017-12-31T08:44:59.749Z,80.08
2017-12-31T08:45:59.761Z,79.99
2017-12-31T08:47:00.083Z,79.7
2017-12-31T08:48:00.067Z,79.51
2017-12-31T08:49:00.081Z,79.7
2017-12-31T08:50:00.098Z,79.89
2017-12-31T08:51:00.117Z,79.7
2017-12-31T08:51:59.849Z,79.8
2017-12-31T08:53:00.135Z,79.8
2017-12-31T08:54:00.153Z,79.8
2017-12-31T08:54:59.893Z,79.8
2017-12-31T08:56:00.181Z,79.7
2017-12-31T08:56:59.921Z,79.6
2017-12-31T08:57:59.938Z,79.7
2017-12-31T08:59:00.225Z,79.7
2017-12-31T09:00:00.334Z,79.89
2017-12-31T09:00:59.979Z,79.6
2017-12-31T09:02:00.269Z,79.8
2017-12-31T09:03:00.297Z,79.7
2017-12-31T09:04:00.025Z,79.51
2017-12-31T09:05:00.320Z,79.8
2017-12-31T09:06:00.344Z,79.6
2017-12-31T09:07:00.070Z,79.7
2017-12-31T09:08:00.086Z,80.08
2017-12-31T09:09:00.097Z,80.08
2017-12-31T09:10:00.386Z,80.36
2017-12-31T09:11:00.133Z,79.8
2017-12-31T09:12:00.425Z,80.27
2017-12-31T09:13:00.154Z,79.89
2017-12-31T09:14:00.483Z,80.18
2017-12-31T09:15:00.457Z,80.08
2017-12-31T09:16:00.682Z,80.22
2017-12-31T09:17:00.490Z,80.27
2017-12-31T09:18:00.503Z,80.08
2017-12-31T09:19:00.243Z,80.22
2017-12-31T09:20:00.533Z,79.99
2017-12-31T09:21:00.549Z,80.02
2017-12-31T09:22:00.296Z,79.93
2017-12-31T09:23:00.578Z,80.02
2017-12-31T09:24:00.316Z,79.83
2017-12-31T09:25:00.331Z,79.93
2017-12-31T09:26:00.359Z,80.41
2017-12-31T09:27:00.638Z,80.79
2017-12-31T09:28:00.675Z,80.31
2017-12-31T09:29:00.389Z,80.69
2017-12-31T09:30:00.403Z,80.79
2017-12-31T09:31:00.420Z,80.5
2017-12-31T09:32:00.433Z,80.6
2017-12-31T09:33:00.450Z,80.5
2017-12-31T09:34:00.781Z,80.88
2017-12-31T09:35:00.753Z,80.79
2017-12-31T09:36:00.508Z,80.6
2017-12-31T09:37:00.791Z,80.31
2017-12-31T09:38:00.804Z,80.79
2017-12-31T09:39:00.827Z,80.6
2017-12-31T09:40:00.591Z,80.69
2017-12-31T09:41:00.566Z,80.79
2017-12-31T09:42:00.859Z,80.98
2017-12-31T09:43:00.606Z,80.79
2017-12-31T09:44:00.898Z,80.98
2017-12-31T09:45:00.901Z,80.98
2017-12-31T09:46:00.926Z,80.79
2017-12-31T09:47:00.932Z,80.79
2017-12-31T09:48:00.672Z,80.88
2017-12-31T09:49:00.694Z,80.88
2017-12-31T09:50:00.699Z,80.98
2017-12-31T09:51:00.992Z,80.98
2017-12-31T09:52:01.020Z,81.26
2017-12-31T09:53:00.755Z,80.88
2017-12-31T09:54:00.764Z,81.07
2017-12-31T09:55:00.777Z,81.17
2017-12-31T09:56:00.838Z,81.26
2017-12-31T09:57:01.082Z,81.36
2017-12-31T09:58:00.820Z,81.46
2017-12-31T09:59:01.110Z,81.36
2017-12-31T10:00:00.857Z,81.36
2017-12-31T10:01:01.139Z,81.36
2017-12-31T10:02:00.884Z,81.26
2017-12-31T10:03:01.168Z,81.36
2017-12-31T10:04:00.908Z,81.36
2017-12-31T10:05:00.925Z,81.36
2017-12-31T10:06:00.949Z,81.74
2017-12-31T10:07:01.229Z,81.65
2017-12-31T10:08:01.247Z,81.74
2017-12-31T10:09:00.987Z,81.74
2017-12-31T10:10:01.004Z,81.84
2017-12-31T10:11:01.064Z,82.12
2017-12-31T10:12:01.029Z,81.93
2017-12-31T10:13:01.323Z,82.21
2017-12-31T10:14:01.370Z,82.31
2017-12-31T10:15:01.351Z,82.31
2017-12-31T10:16:01.369Z,82.03
2017-12-31T10:17:01.107Z,82.12
2017-12-31T10:18:01.121Z,81.97
2017-12-31T10:19:01.411Z,82.07
2017-12-31T10:20:01.150Z,81.93
2017-12-31T10:21:01.493Z,82.03
2017-12-31T10:22:01.180Z,81.93
2017-12-31T10:23:01.194Z,81.97
2017-12-31T10:24:01.220Z,82.07
2017-12-31T10:25:01.226Z,82.45
2017-12-31T10:26:01.541Z,82.45
2017-12-31T10:27:01.259Z,82.26
2017-12-31T10:28:01.273Z,82.35
2017-12-31T10:29:01.284Z,82.35
2017-12-31T10:30:01.585Z,82.73
2017-12-31T10:31:01.318Z,82.45
2017-12-31T10:32:01.606Z,82.64
2017-12-31T10:33:01.345Z,82.35
2017-12-31T10:34:01.361Z,83.02
2017-12-31T10:35:01.650Z,82.07
2017-12-31T10:36:01.666Z,82.35
2017-12-31T10:37:01.685Z,82.83
2017-12-31T10:38:01.436Z,82.73
2017-12-31T10:39:01.440Z,82.83
2017-12-31T10:40:01.453Z,82.83
2017-12-31T10:41:01.468Z,82.83
2017-12-31T10:42:01.759Z,82.35
2017-12-31T10:43:01.511Z,82.17
2017-12-31T10:44:01.522Z,82.83
2017-12-31T10:45:01.732Z,82.45
2017-12-31T10:46:01.820Z,82.45
2017-12-31T10:47:01.562Z,82.45
2017-12-31T10:48:01.914Z,83.21
2017-12-31T10:49:01.867Z,82.92
2017-12-31T10:50:01.604Z,83.4
2017-12-31T10:51:01.622Z,83.31
2017-12-31T10:52:01.636Z,83.21
2017-12-31T10:53:01.650Z,82.59
2017-12-31T10:54:01.939Z,82.87
2017-12-31T10:55:01.957Z,83.31
2017-12-31T10:56:01.702Z,83.31
2017-12-31T10:57:01.988Z,82.68
2017-12-31T10:58:01.728Z,83.25
2017-12-31T10:59:02.018Z,82.68
2017-12-31T11:00:02.039Z,83.06
2017-12-31T11:01:02.050Z,82.59
2017-12-31T11:02:02.067Z,83.25
2017-12-31T11:03:02.080Z,83.16
2017-12-31T11:04:02.103Z,83.06
2017-12-31T11:05:02.109Z,83.06
2017-12-31T11:06:01.851Z,82.97
2017-12-31T11:07:01.866Z,83.16
2017-12-31T11:08:01.882Z,82.92
2017-12-31T11:09:01.897Z,83.06
2017-12-31T11:10:01.914Z,83.12
2017-12-31T11:11:01.930Z,83.02
2017-12-31T11:12:01.994Z,83.06
2017-12-31T11:13:01.960Z,83.16
2017-12-31T11:14:01.979Z,82.97
2017-12-31T11:15:01.994Z,82.97
2017-12-31T11:16:02.292Z,82.92
2017-12-31T11:17:02.299Z,83.25
2017-12-31T11:18:02.314Z,83.25
2017-12-31T11:19:02.057Z,83.35
2017-12-31T11:20:02.345Z,82.59
2017-12-31T11:21:02.361Z,82.68
2017-12-31T11:22:02.378Z,82.49
2017-12-31T11:23:02.395Z,82.3
2017-12-31T11:24:02.136Z,82.4
2017-12-31T11:25:02.149Z,82.3
2017-12-31T11:26:02.445Z,82.3
2017-12-31T11:27:02.463Z,82.49
2017-12-31T11:28:02.198Z,83.25
2017-12-31T11:29:02.214Z,83.35
2017-12-31T11:30:02.510Z,82.49
2017-12-31T11:31:02.522Z,82.49
2017-12-31T11:32:02.537Z,82.49
2017-12-31T11:33:02.551Z,83.16
2017-12-31T11:34:02.293Z,82.59
2017-12-31T11:35:02.582Z,82.59
2017-12-31T11:36:02.600Z,82.87
2017-12-31T11:37:02.344Z,82.49
2017-12-31T11:38:02.354Z,82.59
2017-12-31T11:39:02.642Z,82.3
2017-12-31T11:40:02.662Z,82.49
2017-12-31T11:41:02.743Z,82.49
2017-12-31T11:42:02.689Z,82.11
2017-12-31T11:43:02.434Z,82.78
2017-12-31T11:44:02.458Z,82.2
2017-12-31T11:45:02.738Z,82.49
2017-12-31T11:46:02.758Z,82.11
2017-12-31T11:47:02.770Z,81.82
2017-12-31T11:48:02.513Z,82.2
2017-12-31T11:49:02.803Z,82.01
2017-12-31T11:50:02.560Z,82.11
2017-12-31T11:51:02.558Z,82.2
2017-12-31T11:52:02.856Z,82.11
2017-12-31T11:53:02.866Z,82.3
2017-12-31T11:54:02.881Z,81.92
2017-12-31T11:55:02.899Z,82.2
2017-12-31T11:56:02.638Z,82.11
2017-12-31T11:57:02.652Z,81.82
2017-12-31T11:58:02.696Z,82.2
2017-12-31T11:59:02.961Z,81.82
2017-12-31T12:00:02.993Z,82.11
2017-12-31T12:01:02.990Z,82.11
2017-12-31T12:02:02.733Z,81.82
2017-12-31T12:03:02.799Z,81.54
2017-12-31T12:04:02.765Z,81.54
2017-12-31T12:05:03.057Z,81.35
2017-12-31T12:06:03.099Z,81.54
2017-12-31T12:07:02.810Z,81.25
2017-12-31T12:08:03.162Z,81.58
2017-12-31T12:09:03.122Z,81.35
2017-12-31T12:10:03.144Z,81.58
2017-12-31T12:11:03.154Z,81.48
2017-12-31T12:12:02.914Z,81.15
2017-12-31T12:13:03.241Z,81.2
2017-12-31T12:14:03.074Z,81.1
2017-12-31T12:15:02.940Z,80.91
2017-12-31T12:16:03.240Z,81.29
2017-12-31T12:17:02.973Z,80.91
2017-12-31T12:18:03.312Z,81.01
2017-12-31T12:19:03.294Z,80.62
2017-12-31T12:20:03.319Z,80.81
2017-12-31T12:21:03.315Z,80.43
2017-12-31T12:22:03.346Z,80.15
2017-12-31T12:23:03.399Z,79.96
2017-12-31T12:24:03.085Z,80.24
2017-12-31T12:25:03.101Z,80.53
2017-12-31T12:26:03.124Z,79.86
2017-12-31T12:27:03.134Z,80.15
2017-12-31T12:28:03.216Z,79.86
2017-12-31T12:29:03.442Z,79.86
2017-12-31T12:30:03.467Z,79.86
2017-12-31T12:31:03.472Z,79.86
2017-12-31T12:32:03.490Z,79.77
2017-12-31T12:33:03.513Z,79.19
2017-12-31T12:34:03.275Z,79.38
2017-12-31T12:35:03.539Z,79.19
2017-12-31T12:36:03.558Z,79.48
2017-12-31T12:37:03.294Z,79.19
2017-12-31T12:38:03.600Z,79.19
2017-12-31T12:39:03.613Z,78.43
2017-12-31T12:40:03.346Z,78.52
2017-12-31T12:41:03.360Z,79.19
2017-12-31T12:42:03.663Z,79
2017-12-31T12:43:03.673Z,78.72
2017-12-31T12:44:03.431Z,78.62
2017-12-31T12:45:03.707Z,78.94
2017-12-31T12:46:03.718Z,78.72
2017-12-31T12:47:03.730Z,78.62
2017-12-31T12:48:03.474Z,78.91
2017-12-31T12:49:03.781Z,78.66
2017-12-31T12:50:03.525Z,78.37
2017-12-31T12:51:03.800Z,78.56
2017-12-31T12:52:03.823Z,78.37
2017-12-31T12:53:03.881Z,78.18
2017-12-31T12:54:03.852Z,78.28
2017-12-31T12:55:03.868Z,77.99
2017-12-31T12:56:03.885Z,78.28
2017-12-31T12:57:03.623Z,77.8
2017-12-31T12:58:03.647Z,78.37